KGGG/GGG METAR and TAF weather

Enter ICAO airport designator
Station Type Date Time Source
KGGG METAR 2022/01/25 04:37 UTC NOAA

KGGG 250437Z AUTO 06003KT 10SM -RA FEW007 SCT013 OVC044 09/08 A2993 RMK AO2 P0008 T00890078


Station Type Date Time Source
KGGG Decoded METAR 2022/01/25 04:37 UTC NOAA

LONGVIEW GREGG COUNTY AIRPORT , TX, United States (KGGG) 32-23N 094-43W 107M
Jan 24, 2022 - 11:37 PM EST / 2022.01.25 0437 UTC
Wind: from the ENE (060 degrees) at 3 MPH (3 KT):0
Visibility: 10 mile(s):0
Sky conditions: overcast
Weather: light rain
Precipitation last hour: 0.08 inches
Temperature: 48.0 F (8.9 C)
Dew Point: 46.0 F (7.8 C)
Relative Humidity: 92%
Pressure (altimeter): 29.93 in. Hg (1013 hPa)
ob: KGGG 250437Z AUTO 06003KT 10SM -RA FEW007 SCT013 OVC044 09/08 A2993 RMK AO2 P0008 T00890078
cycle: 4

Station Type Date Time Source
KGGG TAF 2022/01/25 03:24 UTC NOAA

TAF
AMD KGGG 250320Z 2503/2524 00000KT P6SM OVC009
TEMPO 2503/2504 2SM RA BR OVC004
FM250400 VRB03KT 4SM -RA BR OVC004
FM250900 VRB03KT 3SM BR OVC003
FM251400 02007KT 6SM BR OVC007
FM251700 04009KT P6SM OVC013
FM252000 05008KT P6SM BKN020

Example: see airport list